Wright, Iowa
Current Conditions -  °F | °C
As of 3:15 AM on Wednesday 22 Oct 2014 (Local Time) from KOOA Reporting Station
Clear Clear  
Wind Chill: 34°   Ceiling: Unl
Heat Index: 39°   Visibility: 10mi
Dew Point: 37°   Wind: 7mph
Humidity: 89%   Direction: 110°ESE
Pressure: 30.24"   Gusts: NA
Location:  41.3158°N, 92.6258°W
Report Text: KOOA 220815Z AUTO 11006KT 10SM CLR 04/03 A3024 RMK AO2 T00410025
Loading
Personal Weather Stations






























Interactive Weather Map
Tropical Storm Tracking
New forecast layout! Learn more

10-Day Weather Forecast

Advertisements
Track Severe Weather on mobile